Time;durP1;ratioP1;P1;durP2;ratioP2;P2;SDS_P1;SDS_P2;PMS_P1;PMS_P2;Temp;Humidity;BMP_temperature;BMP_pressure;BME280_temperature;BME280_humidity;BME280_pressure;Samples;Min_cycle;Max_cycle;Signal;HPM_P1;HPM_P2
2022/06/01 00:00:10;;;;;;;12.95;6.00;;;;;;;19.99;59.09;98491.31;4503428;31;20153;-78
2022/06/01 00:02:36;;;;;;;12.77;6.15;;;;;;;20.00;59.00;98487.62;4489322;31;20095;-79
2022/06/01 00:05:03;;;;;;;13.07;6.20;;;;;;;20.00;58.94;98486.81;4488836;31;20080;-79
2022/06/01 00:07:29;;;;;;;15.93;6.10;;;;;;;19.99;59.00;98479.75;4489139;31;20435;-80
2022/06/01 00:09:55;;;;;;;13.02;6.10;;;;;;;20.02;58.87;98484.81;4502994;31;20130;-79
2022/06/01 00:12:22;;;;;;;14.13;6.65;;;;;;;20.03;58.81;98482.00;4503172;31;20092;-79
2022/06/01 00:14:47;;;;;;;15.93;6.80;;;;;;;20.01;58.85;98469.75;4488679;31;20103;-79
2022/06/01 00:17:13;;;;;;;16.27;7.55;;;;;;;19.97;59.00;98479.94;4488541;31;20133;-79
2022/06/01 00:19:38;;;;;;;14.75;6.93;;;;;;;20.01;58.93;98475.09;4488443;31;20100;-80
2022/06/01 00:22:14;;;;;;;15.90;6.80;;;;;;;20.01;58.98;98477.78;4488695;31;20096;-79
2022/06/01 00:24:40;;;;;;;13.95;7.15;;;;;;;19.99;59.06;98471.75;4489771;31;20088;-79
2022/06/01 00:27:06;;;;;;;15.90;7.20;;;;;;;19.99;59.13;98474.41;4488529;31;20192;-79
2022/06/01 00:29:32;;;;;;;14.32;7.55;;;;;;;19.95;59.22;98473.03;4502911;31;20126;-79
2022/06/01 00:31:58;;;;;;;15.00;7.25;;;;;;;19.92;59.22;98468.84;4502978;31;20381;-80
2022/06/01 00:34:23;;;;;;;15.10;7.87;;;;;;;19.88;59.33;98466.63;4488486;31;20115;-80
2022/06/01 00:36:49;;;;;;;16.70;8.15;;;;;;;19.86;59.41;98465.91;4502903;31;20076;-80
2022/06/01 00:39:14;;;;;;;17.50;9.18;;;;;;;19.89;59.26;98465.62;4502822;31;20088;-80
2022/06/01 00:41:40;;;;;;;20.40;10.32;;;;;;;19.89;59.36;98465.62;4502785;31;20118;-79
2022/06/01 00:44:05;;;;;;;20.90;11.15;;;;;;;19.88;59.57;98466.63;4502717;31;20159;-80
2022/06/01 00:46:32;;;;;;;19.90;10.40;;;;;;;19.82;60.27;98462.72;4488385;31;20484;-79
2022/06/01 00:49:02;;;;;;;20.15;10.45;;;;;;;19.86;60.51;98464.09;4488493;31;20100;-79
2022/06/01 00:51:28;;;;;;;19.35;10.20;;;;;;;19.86;60.70;98456.09;4488599;31;20104;-79
2022/06/01 00:53:55;;;;;;;20.12;10.13;;;;;;;19.91;60.88;98450.28;4488408;31;20117;-79
2022/06/01 00:56:27;;;;;;;21.95;10.98;;;;;;;19.91;60.93;98455.63;4488270;31;20440;-79
2022/06/01 00:58:55;;;;;;;22.40;11.23;;;;;;;19.91;61.03;98460.97;4488425;31;20589;-80
2022/06/01 01:01:21;;;;;;;22.70;11.52;;;;;;;19.91;61.15;98460.97;4488393;31;20479;-80
2022/06/01 01:03:52;;;;;;;22.77;10.88;;;;;;;19.94;61.20;98466.03;4502601;31;20103;-80
2022/06/01 01:06:23;;;;;;;21.37;11.25;;;;;;;19.75;61.55;98457.12;4485508;32;20102;-80
2022/06/01 01:08:49;;;;;;;22.40;11.12;;;;;;;19.88;61.17;98456.78;4485730;32;20131;-80
2022/06/01 01:11:16;;;;;;;23.05;11.68;;;;;;;19.93;60.93;98458.97;4485566;32;20100;-80
2022/06/01 01:13:43;;;;;;;;;;;;;;;19.88;60.93;98459.44;4487063;32;20499;-79
2022/06/01 01:16:10;;;;;;;19.23;9.45;;;;;;;19.78;61.07;98459.50;4485593;32;20288;-79
2022/06/01 01:18:38;;;;;;;20.58;9.98;;;;;;;19.72;61.04;98468.13;4486724;31;20119;-80
2022/06/01 01:21:19;;;;;;;20.70;9.88;;;;;;;19.79;60.72;98469.19;4485428;32;20104;-80
2022/06/01 01:24:09;;;;;;;20.75;10.50;;;;;;;19.82;60.58;98468.91;4486484;31;20460;-80
2022/06/01 01:26:36;;;;;;;20.85;10.10;;;;;;;19.84;60.42;98466.94;4486531;31;20070;-80
2022/06/01 01:29:09;;;;;;;18.17;9.07;;;;;;;19.84;60.24;98464.25;4484600;32;20092;-81
2022/06/01 01:31:35;;;;;;;16.65;8.63;;;;;;;19.84;60.20;98458.91;4485420;32;20202;-81
2022/06/01 01:34:00;;;;;;;17.92;9.45;;;;;;;19.84;60.13;98453.56;4485151;32;20121;-80
2022/06/01 01:36:44;;;;;;;20.33;11.05;;;;;;;19.88;59.88;98458.62;4486730;31;20080;-80
2022/06/01 01:39:15;;;;;;;21.62;11.35;;;;;;;19.82;59.92;98452.88;4485504;32;20127;-80
2022/06/01 01:41:48;;;;;;;24.95;12.88;;;;;;;19.88;59.83;98451.44;4486749;31;20092;-80
2022/06/01 01:44:20;;;;;;;25.52;12.48;;;;;;;19.89;59.97;98454.94;4486642;31;20081;-80
2022/06/01 01:46:49;;;;;;;25.40;12.43;;;;;;;19.89;60.05;98455.78;4486216;31;20152;-80
2022/06/01 01:49:22;;;;;;;23.95;12.18;;;;;;;19.90;60.18;98456.63;4485167;32;20116;-80
2022/06/01 01:51:53;;;;;;;23.60;11.60;;;;;;;19.86;60.28;98455.22;4486178;31;20431;-80
2022/06/01 01:54:19;;;;;;;22.33;11.73;;;;;;;19.87;60.26;98452.41;4485013;32;20080;-80
2022/06/01 01:57:11;;;;;;;24.70;13.13;;;;;;;19.89;60.21;98449.59;4486008;31;20106;-81
2022/06/01 01:59:39;;;;;;;26.80;12.68;;;;;;;19.92;60.26;98451.97;4484958;32;20092;-80
2022/06/01 02:02:37;;;;;;;25.23;12.75;;;;;;;19.78;60.56;98448.81;4484911;32;20103;-80
2022/06/01 02:08:24;;;;;;;18.55;9.32;;;;;;;19.82;60.47;98450.19;4426119;32;20143;-80
2022/06/01 02:13:37;;;;;;;17.35;8.23;;;;;;;19.87;60.03;98447.06;4426233;32;20176;-80
2022/06/01 02:16:03;;;;;;;15.48;8.18;;;;;;;19.88;59.91;98448.75;4424027;32;20085;-81
2022/06/01 02:18:34;;;;;;;15.68;7.90;;;;;;;19.88;59.82;98445.25;4424114;32;20161;-80
2022/06/01 02:21:06;;;;;;;15.27;7.85;;;;;;;19.93;59.49;98441.09;4424063;32;20176;-80
2022/06/01 02:23:32;;;;;;;14.20;7.53;;;;;;;19.94;59.38;98441.97;4424445;32;20540;-80
2022/06/01 02:25:59;;;;;;;15.88;7.82;;;;;;;19.98;59.13;98432.66;4436898;32;20142;-80
2022/06/01 02:28:25;;;;;;;15.60;7.75;;;;;;;20.00;58.96;98436.00;4423828;32;20077;-80
2022/06/01 02:30:52;;;;;;;17.05;7.57;;;;;;;20.00;58.86;98438.69;4423880;32;20630;-80
2022/06/01 02:33:23;;;;;;;15.52;7.72;;;;;;;19.96;59.02;98439.97;4423866;32;20413;-80
2022/06/01 02:35:52;;;;;;;16.92;8.15;;;;;;;19.98;59.03;98440.66;4423863;32;20081;-80
2022/06/01 02:38:23;;;;;;;15.05;7.60;;;;;;;19.94;59.12;98441.97;4423722;32;20093;-80
2022/06/01 02:40:49;;;;;;;17.98;8.98;;;;;;;19.95;59.21;98446.31;4448368;32;20562;-80
2022/06/01 02:43:14;;;;;;;17.73;8.35;;;;;;;19.95;59.16;98444.50;4472005;32;20088;-80
2022/06/01 02:45:40;;;;;;;17.45;9.55;;;;;;;19.94;59.39;98444.63;4470880;32;20072;-80
2022/06/01 02:48:06;;;;;;;17.60;7.93;;;;;;;19.90;59.49;98448.63;4472011;32;20106;-80
2022/06/01 02:50:33;;;;;;;17.55;8.75;;;;;;;20.00;59.26;98444.03;4471985;32;20169;-80
2022/06/01 02:52:59;;;;;;;17.67;8.98;;;;;;;20.04;59.25;98446.22;4472158;32;20133;-80
2022/06/01 02:55:25;;;;;;;18.87;9.00;;;;;;;20.07;59.24;98441.56;4457851;32;20126;-79
2022/06/01 02:57:51;;;;;;;18.02;8.45;;;;;;;20.11;59.26;98438.47;4472042;32;20111;-80
2022/06/01 03:00:23;;;;;;;18.10;8.75;;;;;;;20.12;59.26;98434.78;4472026;32;20131;-80
2022/06/01 03:02:51;;;;;;;18.55;9.73;;;;;;;20.16;59.20;98437.97;4471936;32;20191;-80
2022/06/01 03:05:20;;;;;;;20.67;10.75;;;;;;;20.17;59.33;98429.81;4473616;32;20164;-80
2022/06/01 03:07:46;;;;;;;21.83;11.63;;;;;;;20.19;59.39;98419.81;4487790;32;20064;-80
2022/06/01 03:10:11;;;;;;;22.08;11.40;;;;;;;20.20;59.59;98418.81;4487761;31;20403;-80
2022/06/01 03:12:37;;;;;;;28.17;12.07;;;;;;;20.26;59.58;98414.66;4486459;32;20096;-80
2022/06/01 03:15:04;;;;;;;29.48;14.73;;;;;;;20.29;59.65;98418.88;4486394;32;20149;-80
2022/06/01 03:17:30;;;;;;;29.25;15.38;;;;;;;20.36;59.88;98409.25;4487680;31;20102;-80
2022/06/01 03:19:56;;;;;;;37.25;18.35;;;;;;;20.34;60.24;98420.09;4487487;31;20352;-79
2022/06/01 03:22:21;;;;;;;39.17;21.10;;;;;;;20.33;60.53;98415.72;4486466;32;20116;-80
2022/06/01 03:24:47;;;;;;;47.00;23.80;;;;;;;20.39;60.90;98411.59;4486267;32;20438;-80
2022/06/01 03:27:12;;;;;;;43.80;22.65;;;;;;;20.43;61.24;98404.94;4487445;31;20360;-80
2022/06/01 03:29:38;;;;;;;46.05;23.50;;;;;;;20.45;61.58;98402.94;4486318;32;20092;-80
2022/06/01 03:32:04;;;;;;;46.35;23.60;;;;;;;20.45;61.64;98405.63;4486303;32;20119;-80
2022/06/01 03:34:30;;;;;;;50.40;26.90;;;;;;;20.58;61.51;98418.59;4487539;31;20095;-80
2022/06/01 03:36:56;;;;;;;47.53;23.65;;;;;;;20.51;61.74;98431.75;4487479;31;20164;-81
2022/06/01 03:39:22;;;;;;;51.90;26.25;;;;;;;20.59;61.75;98436.31;4486253;32;20105;-81
2022/06/01 03:41:47;;;;;;;53.30;27.40;;;;;;;20.57;62.16;98452.56;4487391;31;20280;-81
2022/06/01 03:47:04;;;;;;;44.40;23.95;;;;;;;20.04;66.28;98514.94;4487492;32;20153;-80
2022/06/01 03:49:29;;;;;;;41.25;21.00;;;;;;;20.02;67.20;98498.19;4486129;32;20438;-81
2022/06/01 03:51:56;;;;;;;29.02;14.98;;;;;;;19.94;67.56;98496.28;4486911;31;20088;-81
2022/06/01 03:54:22;;;;;;;20.70;11.15;;;;;;;19.64;68.36;98505.41;4487398;31;20093;-81
2022/06/01 03:56:47;;;;;;;20.90;10.95;;;;;;;19.76;67.23;98512.28;4487406;31;20129;-80
2022/06/01 03:59:13;;;;;;;20.42;11.88;;;;;;;19.74;67.55;98514.25;4486177;32;20163;-80
2022/06/01 04:01:38;;;;;;;20.20;11.40;;;;;;;19.79;67.37;98522.66;4487334;31;20107;-81
2022/06/01 04:04:04;;;;;;;23.12;13.02;;;;;;;19.87;67.54;98505.03;4487132;31;20092;-80
2022/06/01 04:06:30;;;;;;;23.98;12.75;;;;;;;19.76;67.30;98501.59;4497946;31;20136;-80
2022/06/01 04:08:56;;;;;;;22.90;12.25;;;;;;;19.88;66.93;98493.38;4503120;31;20088;-80
2022/06/01 04:11:21;;;;;;;22.92;12.95;;;;;;;19.89;66.71;98482.50;4488709;31;20096;-81
2022/06/01 04:13:47;;;;;;;25.17;13.77;;;;;;;19.92;66.69;98470.69;4475530;31;20365;-81
2022/06/01 04:16:12;;;;;;;23.38;13.40;;;;;;;19.92;66.92;98474.19;4502817;31;20435;-81
2022/06/01 04:18:37;;;;;;;24.58;13.60;;;;;;;20.01;66.88;98481.31;4502979;31;20072;-81
2022/06/01 04:21:03;;;;;;;21.40;12.70;;;;;;;20.13;66.69;98495.31;4503005;31;20151;-81
2022/06/01 04:23:29;;;;;;;22.52;13.27;;;;;;;20.22;66.46;98499.75;4488627;31;20084;-81
2022/06/01 04:25:55;;;;;;;21.12;12.27;;;;;;;20.31;65.91;98491.78;4502764;31;20237;-80
2022/06/01 04:28:20;;;;;;;23.10;12.35;;;;;;;20.37;65.83;98501.88;4502827;31;20123;-81
2022/06/01 04:30:46;;;;;;;23.33;13.32;;;;;;;20.50;65.27;98502.34;4502872;31;20076;-80
2022/06/01 04:33:12;;;;;;;22.50;13.05;;;;;;;20.58;64.91;98505.06;4502784;31;20080;-80
2022/06/01 04:35:37;;;;;;;22.00;11.90;;;;;;;20.62;64.70;98505.63;4488497;31;20109;-80
2022/06/01 04:38:15;;;;;;;22.42;13.25;;;;;;;20.72;64.52;98506.38;4488334;31;20119;-80
2022/06/01 04:40:42;;;;;;;21.97;12.40;;;;;;;20.82;64.29;98506.28;4503047;31;20114;-80
2022/06/01 04:43:08;;;;;;;21.02;12.77;;;;;;;20.93;63.80;98508.72;4502815;31;20143;-80
2022/06/01 04:45:33;;;;;;;22.10;13.35;;;;;;;20.99;63.83;98507.25;4488294;31;20084;-80
2022/06/01 04:47:59;;;;;;;22.02;12.80;;;;;;;21.13;63.92;98506.69;4502714;31;20088;-81
2022/06/01 04:50:24;;;;;;;23.08;13.73;;;;;;;21.25;63.61;98506.41;4502740;31;20099;-80
2022/06/01 04:52:50;;;;;;;23.08;13.70;;;;;;;21.32;63.11;98500.25;4502667;31;20094;-80
2022/06/01 04:55:15;;;;;;;21.15;12.63;;;;;;;21.37;62.57;98499.78;4502685;31;20487;-80
2022/06/01 04:57:41;;;;;;;23.45;13.70;;;;;;;21.35;62.59;98499.13;4502768;31;20489;-80
2022/06/01 05:00:07;;;;;;;28.25;14.98;;;;;;;21.41;62.40;98501.16;4488135;31;20131;-80
2022/06/01 05:02:33;;;;;;;23.27;13.95;;;;;;;21.38;62.47;98499.63;4502733;31;20111;-80
2022/06/01 05:04:59;;;;;;;23.12;14.35;;;;;;;21.43;62.33;98504.50;4501183;31;20123;-80
2022/06/01 05:07:24;;;;;;;24.27;14.55;;;;;;;21.52;61.74;98508.09;4488179;31;20562;-79
2022/06/01 05:09:49;;;;;;;22.65;13.50;;;;;;;21.57;61.50;98511.97;4502599;31;20092;-81
2022/06/01 05:12:15;;;;;;;22.42;13.48;;;;;;;21.60;61.14;98505.47;4502350;31;20137;-79
2022/06/01 05:14:40;;;;;;;24.73;13.40;;;;;;;21.67;60.37;98497.59;4502537;31;20321;-80
2022/06/01 05:17:06;;;;;;;24.35;14.35;;;;;;;21.59;60.73;98503.75;4502411;31;20114;-80
2022/06/01 05:19:33;;;;;;;23.92;13.77;;;;;;;21.69;60.81;98501.81;4502480;31;20533;-79
2022/06/01 05:21:59;;;;;;;25.20;14.82;;;;;;;21.69;60.59;98509.00;4488189;31;20101;-79
2022/06/01 05:24:25;;;;;;;25.33;15.18;;;;;;;21.67;60.36;98513.69;4502255;31;20077;-79
2022/06/01 05:26:50;;;;;;;25.92;16.00;;;;;;;21.70;60.56;98510.69;4487885;31;20102;-80
2022/06/01 05:29:15;;;;;;;24.77;14.52;;;;;;;21.76;60.70;98510.88;4502029;31;20115;-80
2022/06/01 05:31:41;;;;;;;26.95;15.73;;;;;;;21.85;60.48;98513.59;4502126;31;20492;-83
2022/06/01 05:34:06;;;;;;;23.35;14.73;;;;;;;21.90;60.48;98520.13;4502234;31;20080;-84
2022/06/01 05:36:32;;;;;;;20.83;12.37;;;;;;;21.79;60.77;98526.66;4501960;31;20118;-84
2022/06/01 05:38:57;;;;;;;20.50;11.50;;;;;;;22.05;60.00;98538.31;4487794;31;20395;-84
2022/06/01 05:41:23;;;;;;;20.67;10.98;;;;;;;22.01;59.82;98539.63;4502071;31;20080;-82
2022/06/01 05:43:49;;;;;;;20.27;11.18;;;;;;;21.91;59.04;98535.22;4487733;31;20080;-83
2022/06/01 05:46:14;;;;;;;18.87;9.82;;;;;;;21.88;59.52;98530.19;4501983;31;20092;-83
2022/06/01 05:48:40;;;;;;;19.48;10.82;;;;;;;21.83;59.99;98537.91;4502035;31;20106;-83
2022/06/01 05:51:06;;;;;;;20.08;10.63;;;;;;;22.06;59.78;98542.66;4502027;31;20132;-82
2022/06/01 05:53:31;;;;;;;18.90;10.23;;;;;;;22.47;58.82;98543.63;4502006;31;20132;-80
2022/06/01 05:55:57;;;;;;;19.67;11.00;;;;;;;22.89;58.74;98547.16;4487536;31;20096;-82
2022/06/01 05:58:25;;;;;;;17.40;10.23;;;;;;;23.23;58.46;98551.53;4501742;31;20120;-83
2022/06/01 06:00:52;;;;;;;19.10;10.45;;;;;;;23.37;57.02;98550.81;4487547;31;20143;-83
2022/06/01 06:03:19;;;;;;;20.53;10.10;;;;;;;22.78;56.73;98559.91;4501774;31;20104;-77
2022/06/01 06:08:29;;;;;;;17.58;9.23;;;;;;;22.93;56.67;98540.47;4484344;31;20115;-78
2022/06/01 06:10:55;;;;;;;18.75;9.95;;;;;;;22.97;56.31;98549.84;4489089;31;20468;-79
2022/06/01 06:13:20;;;;;;;17.67;9.52;;;;;;;22.93;56.90;98556.59;4492769;31;20103;-78
2022/06/01 06:15:46;;;;;;;16.67;8.73;;;;;;;22.77;57.26;98558.25;4487594;31;20145;-78
2022/06/01 06:18:13;;;;;;;15.80;7.95;;;;;;;22.89;56.39;98561.44;4495803;31;20140;-78
2022/06/01 06:20:41;;;;;;;17.00;7.97;;;;;;;22.68;56.32;98558.41;4486468;32;20084;-78
2022/06/01 06:23:06;;;;;;;14.10;7.12;;;;;;;23.09;56.30;98553.06;4500736;31;20072;-78
2022/06/01 06:25:32;;;;;;;14.40;7.18;;;;;;;23.30;55.24;98549.84;4488899;31;20115;-77
2022/06/01 06:27:57;;;;;;;14.98;7.68;;;;;;;23.53;53.76;98556.19;4503461;31;20096;-78
2022/06/01 06:30:23;;;;;;;13.20;7.12;;;;;;;23.69;54.32;98557.12;4494538;31;20177;-80
2022/06/01 06:32:48;;;;;;;13.50;6.45;;;;;;;23.79;53.58;98555.09;4473474;32;20127;-81
2022/06/01 06:35:14;;;;;;;12.60;6.22;;;;;;;23.81;53.63;98553.06;4487965;32;20097;-81
2022/06/01 06:37:39;;;;;;;13.07;6.12;;;;;;;23.86;53.06;98563.34;4473555;32;20096;-82
2022/06/01 06:40:05;;;;;;;12.77;6.00;;;;;;;23.74;53.48;98571.75;4473552;32;20096;-86
2022/06/01 06:42:31;;;;;;;13.95;6.37;;;;;;;23.60;54.25;98577.81;4487584;32;20110;-84
2022/06/01 06:44:56;;;;;;;11.63;5.62;;;;;;;23.42;54.92;98578.03;4487732;32;20436;-83
2022/06/01 06:47:21;;;;;;;12.80;6.45;;;;;;;23.10;55.30;98581.59;4486505;32;20084;-83
2022/06/01 06:49:47;;;;;;;14.25;6.35;;;;;;;22.84;54.81;98590.63;4485401;32;20157;-83
2022/06/01 06:52:12;;;;;;;13.43;6.03;;;;;;;22.29;56.36;98591.22;4486222;32;20114;-83
2022/06/01 06:54:38;;;;;;;15.73;6.75;;;;;;;22.13;57.19;98600.84;4485945;32;20471;-83
2022/06/01 06:57:04;;;;;;;13.85;6.97;;;;;;;22.14;57.20;98594.50;4486319;32;20123;-83
2022/06/01 06:59:29;;;;;;;14.55;6.60;;;;;;;21.92;57.91;98597.75;4471969;32;20368;-83
2022/06/01 07:01:54;;;;;;;16.48;7.50;;;;;;;21.94;58.09;98601.97;4472705;32;20081;-85
2022/06/01 07:04:20;;;;;;;16.73;7.50;;;;;;;22.01;58.35;98596.78;4487587;32;20138;-83
2022/06/01 07:06:45;;;;;;;15.27;7.60;;;;;;;22.03;57.19;98610.06;4487452;32;20110;-82
2022/06/01 07:09:10;;;;;;;15.18;8.05;;;;;;;22.09;57.72;98612.91;4473414;32;20110;-82
2022/06/01 07:11:38;;;;;;;15.00;7.93;;;;;;;22.28;57.59;98616.38;4487707;32;20356;-82
2022/06/01 07:14:04;;;;;;;14.50;7.53;;;;;;;22.52;57.22;98613.78;4473246;32;20096;-82
2022/06/01 07:16:32;;;;;;;17.70;8.77;;;;;;;22.62;57.79;98626.19;4487564;32;20667;-83
2022/06/01 07:18:59;;;;;;;17.45;8.43;;;;;;;22.63;56.81;98623.34;4475375;31;20577;-80
2022/06/01 07:21:25;;;;;;;18.20;8.68;;;;;;;22.70;56.70;98626.22;4488328;31;20135;-82
2022/06/01 07:23:50;;;;;;;18.15;9.35;;;;;;;22.72;56.27;98630.41;4488774;31;20126;-84
2022/06/01 07:26:19;;;;;;;18.95;8.65;;;;;;;22.89;56.23;98628.59;4488932;31;20092;-82
2022/06/01 07:28:44;;;;;;;15.57;7.55;;;;;;;23.04;55.13;98625.28;4502451;31;20447;-81
2022/06/01 07:31:10;;;;;;;13.95;6.87;;;;;;;23.05;54.83;98625.09;4489025;31;20144;-82
2022/06/01 07:33:35;;;;;;;15.18;6.62;;;;;;;23.29;54.94;98628.78;4502511;31;20380;-81
2022/06/01 07:36:05;;;;;;;12.52;5.68;;;;;;;23.68;54.14;98628.91;4502452;31;20148;-82
2022/06/01 07:44:08;;;;;;;9.65;3.95;;;;;;;23.57;52.04;98615.84;4485809;32;20195;-82
2022/06/01 07:46:37;;;;;;;11.95;4.10;;;;;;;23.32;52.54;98618.53;4487210;32;20105;-81
2022/06/01 07:49:04;;;;;;;8.95;4.10;;;;;;;23.29;53.61;98620.72;4486605;32;20395;-81
2022/06/01 07:51:30;;;;;;;10.45;4.10;;;;;;;23.41;53.43;98627.47;4486148;32;20126;-82
2022/06/01 07:53:55;;;;;;;11.48;4.45;;;;;;;23.39;54.11;98624.06;4486625;32;20149;-82
2022/06/01 07:56:21;;;;;;;9.70;4.53;;;;;;;23.10;54.15;98638.03;4487049;32;20142;-82
2022/06/01 07:58:46;;;;;;;11.70;4.62;;;;;;;23.36;53.88;98641.38;4488862;31;20111;-80
2022/06/01 08:01:12;;;;;;;10.30;4.60;;;;;;;23.19;54.58;98645.09;4495215;31;20088;-82
2022/06/01 08:03:37;;;;;;;10.02;4.43;;;;;;;23.09;54.24;98642.56;4503130;31;20116;-82
2022/06/01 08:06:03;;;;;;;10.00;4.20;;;;;;;23.54;53.66;98645.75;4502859;31;20439;-79
2022/06/01 08:08:28;;;;;;;10.35;4.25;;;;;;;23.39;54.00;98648.25;4502948;31;20084;-79
2022/06/01 08:10:54;;;;;;;8.88;4.03;;;;;;;23.42;53.11;98641.72;4501668;31;20487;-79
2022/06/01 08:13:19;;;;;;;10.68;4.30;;;;;;;23.41;53.18;98646.28;4488586;31;20379;-79
2022/06/01 08:15:47;;;;;;;9.32;4.28;;;;;;;23.48;52.64;98654.47;4488611;31;20100;-79
2022/06/01 08:18:14;;;;;;;;;;;;;;;23.46;53.09;98648.44;4503372;31;20431;-79
2022/06/01 08:20:39;;;;;;;10.52;4.57;;;;;;;23.78;54.16;98655.66;4488623;31;19982;-79
2022/06/01 08:23:06;;;;;;;11.98;4.18;;;;;;;23.28;53.27;98657.53;4503247;31;20339;-79
2022/06/01 08:25:32;;;;;;;10.40;4.05;;;;;;;23.65;52.81;98656.16;4503204;31;20442;-79
2022/06/01 08:27:57;;;;;;;9.88;4.10;;;;;;;23.79;53.18;98654.63;4503148;31;20106;-79
2022/06/01 08:30:24;;;;;;;10.10;3.80;;;;;;;23.82;53.06;98657.00;4503211;31;20069;-79
2022/06/01 08:32:50;;;;;;;9.45;3.33;;;;;;;23.92;51.39;98664.88;4488874;31;20118;-79
2022/06/01 08:35:19;;;;;;;9.95;3.75;;;;;;;23.92;51.74;98664.88;4503188;31;20104;-79
2022/06/01 08:37:48;;;;;;;10.13;4.43;;;;;;;23.69;51.61;98660.16;4503143;31;20208;-79
2022/06/01 08:40:15;;;;;;;9.65;3.67;;;;;;;23.89;50.71;98663.38;4488695;31;20072;-79
2022/06/01 08:42:48;;;;;;;8.88;3.08;;;;;;;23.91;50.75;98664.03;4488837;31;20096;-79
2022/06/01 08:45:14;;;;;;;9.15;3.20;;;;;;;24.04;51.75;98665.34;4488403;31;20096;-79
2022/06/01 08:47:41;;;;;;;9.43;3.42;;;;;;;24.14;51.63;98671.34;4488659;31;20163;-79
2022/06/01 08:50:14;;;;;;;10.45;3.15;;;;;;;24.15;51.58;98673.03;4488512;31;20098;-79
2022/06/01 08:52:40;;;;;;;8.88;3.30;;;;;;;24.13;50.37;98675.91;4488597;31;20100;-79
2022/06/01 08:55:05;;;;;;;9.43;3.67;;;;;;;24.09;49.97;98671.03;4502747;31;20088;-79
2022/06/01 08:57:47;;;;;;;8.60;3.30;;;;;;;23.81;50.00;98675.97;4502564;31;20076;-79
2022/06/01 09:00:16;;;;;;;8.07;3.35;;;;;;;23.76;50.41;98668.41;4488427;31;20451;-79
2022/06/01 09:03:07;;;;;;;9.50;3.70;;;;;;;24.14;49.99;98674.03;4488591;31;20104;-79
2022/06/01 09:05:49;;;;;;;7.47;3.10;;;;;;;24.22;50.21;98671.34;4496401;31;199871;-79
2022/06/01 09:08:52;;;;;;;7.43;2.92;;;;;;;24.18;49.36;98672.66;4488602;31;20143;-79
2022/06/01 09:11:38;;;;;;;8.38;2.95;;;;;;;24.28;48.68;98673.31;4488346;31;20439;-79
2022/06/01 09:14:06;;;;;;;8.73;3.05;;;;;;;24.11;49.07;98675.22;4502118;31;20114;-79
2022/06/01 09:16:34;;;;;;;7.78;2.90;;;;;;;23.99;48.88;98673.94;4502590;31;20088;-79
2022/06/01 09:19:01;;;;;;;7.28;2.60;;;;;;;24.01;49.22;98684.50;4488219;31;20081;-78
2022/06/01 09:24:39;;;;;;;8.55;2.80;;;;;;;24.29;49.37;98682.22;4490296;31;20487;-79
2022/06/01 09:27:08;;;;;;;7.18;2.75;;;;;;;24.30;47.94;98689.31;4488079;31;20103;-79
2022/06/01 09:29:53;;;;;;;6.78;2.58;;;;;;;24.43;47.94;98691.44;4502413;31;20452;-79
2022/06/01 09:32:29;;;;;;;6.00;2.35;;;;;;;24.49;47.45;98682.66;4501914;31;20107;-79
2022/06/01 09:34:59;;;;;;;9.50;2.92;;;;;;;24.64;46.10;98683.59;4502302;31;20451;-79
2022/06/01 09:37:27;;;;;;;8.57;3.08;;;;;;;24.57;45.49;98689.87;4502261;31;20115;-79
2022/06/01 09:40:03;;;;;;;8.35;2.70;;;;;;;24.51;46.11;98689.59;4487862;31;20155;-79
2022/06/01 09:42:37;;;;;;;6.78;2.45;;;;;;;24.55;44.52;98690.09;4488112;31;20446;-79
2022/06/01 09:45:12;;;;;;;7.55;2.30;;;;;;;24.36;44.18;98694.00;4487760;31;20470;-79
2022/06/01 09:47:40;;;;;;;6.55;2.58;;;;;;;24.26;44.88;98691.50;4487957;31;20572;-79
2022/06/01 09:50:29;;;;;;;9.80;3.05;;;;;;;24.25;45.40;98688.97;4502303;31;20423;-79
2022/06/01 09:52:59;;;;;;;7.35;2.58;;;;;;;24.17;46.56;98697.09;4476546;31;20425;-79
2022/06/01 09:55:27;;;;;;;7.90;2.83;;;;;;;24.30;45.98;98700.09;4504045;31;20167;-79
2022/06/01 09:58:08;;;;;;;9.05;2.80;;;;;;;24.21;47.11;98695.72;4489663;31;20126;-79
2022/06/01 10:06:31;;;;;;;5.82;2.35;;;;;;;24.36;44.39;98698.53;4503854;31;20114;-79
2022/06/01 10:09:23;;;;;;;6.37;2.10;;;;;;;24.39;44.37;98690.09;4489755;31;20144;-79
2022/06/01 10:11:51;;;;;;;6.95;2.40;;;;;;;24.30;44.71;98689.31;4479007;31;20844;-79
2022/06/01 10:14:18;;;;;;;10.13;2.87;;;;;;;24.38;44.56;98686.59;4504017;31;20098;-79
2022/06/01 10:17:13;;;;;;;7.28;2.40;;;;;;;24.24;45.19;98695.38;4489340;31;20100;-79
2022/06/01 10:19:44;;;;;;;6.87;2.30;;;;;;;24.31;45.15;98693.66;4489615;31;20154;-79
2022/06/01 10:22:27;;;;;;;6.00;2.40;;;;;;;24.46;44.21;98683.84;4503863;31;20079;-79
2022/06/01 10:25:11;;;;;;;6.47;2.50;;;;;;;24.54;44.00;98691.09;4503734;31;20079;-79
2022/06/01 10:28:06;;;;;;;7.00;2.50;;;;;;;24.56;44.61;98693.59;4503878;31;20088;-79
2022/06/01 10:30:43;;;;;;;6.90;2.33;;;;;;;24.63;43.75;98690.03;4482985;31;20100;-79
2022/06/01 10:33:15;;;;;;;7.28;2.28;;;;;;;24.56;42.01;98697.13;4489790;31;20134;-79
2022/06/01 10:35:45;;;;;;;6.57;2.20;;;;;;;24.67;42.65;98690.53;4503791;31;20126;-79
2022/06/01 10:38:17;;;;;;;6.20;2.35;;;;;;;24.69;42.03;98694.72;4503732;31;20084;-79
2022/06/01 10:40:52;;;;;;;6.65;2.53;;;;;;;24.56;42.32;98699.81;4489546;31;20143;-79
2022/06/01 10:43:37;;;;;;;6.15;2.47;;;;;;;24.75;42.51;98703.94;4489493;31;20080;-79
2022/06/01 10:46:35;;;;;;;7.25;2.33;;;;;;;24.72;43.00;98699.75;4489130;31;20147;-79
2022/06/01 10:49:38;;;;;;;6.93;2.42;;;;;;;24.75;43.24;98703.94;4503053;31;20126;-79
2022/06/01 10:52:30;;;;;;;7.55;2.30;;;;;;;24.52;43.55;98698.50;4503866;31;20444;-79
2022/06/01 10:55:07;;;;;;;7.28;2.40;;;;;;;24.73;43.77;98697.87;4504012;31;20098;-79
2022/06/01 10:57:39;;;;;;;5.40;2.10;;;;;;;24.68;42.42;98705.66;4503623;31;20094;-79
2022/06/01 11:00:06;;;;;;;5.37;1.90;;;;;;;24.67;41.55;98696.75;4489346;31;20206;-79
2022/06/01 11:02:55;;;;;;;6.20;2.12;;;;;;;24.71;41.35;98702.63;4502767;31;20052;-79
2022/06/01 11:05:25;;;;;;;;;;;;;;;24.83;40.91;98695.81;4503578;31;20361;-79
2022/06/01 11:08:02;;;;;;;5.65;2.10;;;;;;;24.81;41.49;98699.69;4489496;31;20374;-80
2022/06/01 11:10:42;;;;;;;5.20;2.15;;;;;;;24.99;41.43;98711.03;4503477;31;20110;-79
2022/06/01 11:13:19;;;;;;;5.25;1.83;;;;;;;24.91;40.69;98703.00;4503586;31;20091;-79
2022/06/01 11:16:24;;;;;;;4.62;1.85;;;;;;;24.88;40.49;98704.19;4503560;31;20088;-79
2022/06/01 11:19:17;;;;;;;5.32;1.80;;;;;;;24.86;39.27;98700.84;4410481;32;20599;-79
2022/06/01 11:22:24;;;;;;;4.45;1.70;;;;;;;24.59;40.20;98699.47;4417132;32;20149;-79
2022/06/01 11:24:49;;;;;;;4.55;1.83;;;;;;;24.86;39.91;98687.38;4410530;32;20110;-80
2022/06/01 11:27:31;;;;;;;6.25;1.98;;;;;;;25.13;39.72;98695.97;4423176;32;20104;-79
2022/06/01 11:30:22;;;;;;;5.07;1.60;;;;;;;25.18;38.18;98692.72;4423210;32;20097;-80
2022/06/01 11:33:10;;;;;;;4.93;2.00;;;;;;;25.20;38.84;98696.06;4410541;32;20117;-80
2022/06/01 11:35:39;;;;;;;3.97;1.83;;;;;;;25.24;38.13;98695.56;4423187;32;20469;-79
2022/06/01 11:38:07;;;;;;;3.65;1.65;;;;;;;25.22;38.49;98691.34;4410443;32;20126;-79
2022/06/01 11:40:51;;;;;;;4.03;1.85;;;;;;;25.12;38.83;98692.41;4423165;32;20100;-79
2022/06/01 11:43:33;;;;;;;5.00;1.80;;;;;;;25.17;38.71;98689.19;4423139;32;20121;-79
2022/06/01 11:46:02;;;;;;;6.57;2.00;;;;;;;25.34;38.66;98681.00;4423227;32;20097;-79
2022/06/01 11:48:33;;;;;;;4.50;1.80;;;;;;;25.24;37.81;98676.69;4410354;32;20112;-79
2022/06/01 11:51:18;;;;;;;3.67;1.55;;;;;;;25.36;37.86;98678.94;4423186;32;20132;-79
2022/06/01 11:54:05;;;;;;;4.62;1.70;;;;;;;24.97;38.41;98682.59;4430606;31;20099;-80
2022/06/01 11:56:44;;;;;;;7.12;2.00;;;;;;;25.28;38.20;98687.94;4488858;31;20368;-79
2022/06/01 11:59:20;;;;;;;5.30;1.70;;;;;;;25.46;37.52;98690.34;4503162;31;20103;-80
2022/06/01 12:02:02;;;;;;;6.28;1.80;;;;;;;25.71;35.92;98680.19;4503063;31;20099;-79